sensor_id;sensor_type;location;lat;lon;timestamp;temperature;humidity
49579;DHT22;35483;50.828;3.228;2022-09-09T00:06:23;17.10;99.90
49579;DHT22;35483;50.828;3.228;2022-09-09T00:09:16;17.10;99.90
49579;DHT22;35483;50.828;3.228;2022-09-09T00:11:54;17.10;99.90
49579;DHT22;35483;50.828;3.228;2022-09-09T00:14:55;17.10;99.90
49579;DHT22;35483;50.828;3.228;2022-09-09T00:17:43;17.20;99.90
49579;DHT22;35483;50.828;3.228;2022-09-09T00:20:19;17.10;99.90
49579;DHT22;35483;50.828;3.228;2022-09-09T00:23:11;17.10;99.90
49579;DHT22;35483;50.828;3.228;2022-09-09T00:26:06;17.10;99.90
49579;DHT22;35483;50.828;3.228;2022-09-09T00:28:44;17.20;99.90
49579;DHT22;35483;50.828;3.228;2022-09-09T00:31:16;17.10;99.90
49579;DHT22;35483;50.828;3.228;2022-09-09T00:33:45;17.10;99.90
49579;DHT22;35483;50.828;3.228;2022-09-09T00:36:18;17.10;99.90
49579;DHT22;35483;50.828;3.228;2022-09-09T00:38:56;17.10;99.90
49579;DHT22;35483;50.828;3.228;2022-09-09T00:44:35;17.10;99.90
49579;DHT22;35483;50.828;3.228;2022-09-09T00:48:08;17.10;99.90
49579;DHT22;35483;50.828;3.228;2022-09-09T00:50:14;17.00;99.90
49579;DHT22;35483;50.828;3.228;2022-09-09T00:55:29;16.90;99.90
49579;DHT22;35483;50.828;3.228;2022-09-09T00:57:59;16.80;99.90
49579;DHT22;35483;50.828;3.228;2022-09-09T01:00:27;16.70;99.90
49579;DHT22;35483;50.828;3.228;2022-09-09T01:05:51;16.70;99.90
49579;DHT22;35483;50.828;3.228;2022-09-09T01:08:29;16.60;99.90
49579;DHT22;35483;50.828;3.228;2022-09-09T01:10:59;16.60;99.90
49579;DHT22;35483;50.828;3.228;2022-09-09T01:13:28;16.60;99.90
49579;DHT22;35483;50.828;3.228;2022-09-09T01:15:58;16.60;99.90
49579;DHT22;35483;50.828;3.228;2022-09-09T01:18:40;16.50;99.90
49579;DHT22;35483;50.828;3.228;2022-09-09T01:26:44;16.50;99.90
49579;DHT22;35483;50.828;3.228;2022-09-09T01:29:13;16.40;99.90
49579;DHT22;35483;50.828;3.228;2022-09-09T01:34:24;16.40;99.90
49579;DHT22;35483;50.828;3.228;2022-09-09T01:36:57;16.40;99.90
49579;DHT22;35483;50.828;3.228;2022-09-09T01:39:25;16.40;99.90
49579;DHT22;35483;50.828;3.228;2022-09-09T01:41:51;16.40;99.90
49579;DHT22;35483;50.828;3.228;2022-09-09T01:44:19;16.40;99.90
49579;DHT22;35483;50.828;3.228;2022-09-09T01:46:45;16.40;99.90
49579;DHT22;35483;50.828;3.228;2022-09-09T01:49:11;16.40;99.90
49579;DHT22;35483;50.828;3.228;2022-09-09T01:51:39;16.40;99.90
49579;DHT22;35483;50.828;3.228;2022-09-09T01:54:06;16.50;99.90
49579;DHT22;35483;50.828;3.228;2022-09-09T01:56:43;16.50;99.90
49579;DHT22;35483;50.828;3.228;2022-09-09T01:59:53;16.60;99.90
49579;DHT22;35483;50.828;3.228;2022-09-09T02:02:39;16.70;99.90
49579;DHT22;35483;50.828;3.228;2022-09-09T02:05:21;16.70;99.90
49579;DHT22;35483;50.828;3.228;2022-09-09T02:08:07;16.70;99.90
49579;DHT22;35483;50.828;3.228;2022-09-09T02:10:46;16.70;99.90
49579;DHT22;35483;50.828;3.228;2022-09-09T02:13:17;16.80;99.90
49579;DHT22;35483;50.828;3.228;2022-09-09T02:15:59;16.80;99.90
49579;DHT22;35483;50.828;3.228;2022-09-09T02:18:32;16.80;99.90
49579;DHT22;35483;50.828;3.228;2022-09-09T02:20:59;16.70;99.90
49579;DHT22;35483;50.828;3.228;2022-09-09T02:23:25;16.70;99.90
49579;DHT22;35483;50.828;3.228;2022-09-09T02:25:52;16.60;99.90
49579;DHT22;35483;50.828;3.228;2022-09-09T02:28:20;16.60;99.90
49579;DHT22;35483;50.828;3.228;2022-09-09T02:30:49;16.60;99.90
49579;DHT22;35483;50.828;3.228;2022-09-09T02:33:24;16.60;99.90
49579;DHT22;35483;50.828;3.228;2022-09-09T02:35:52;16.50;99.90
49579;DHT22;35483;50.828;3.228;2022-09-09T02:38:20;16.50;99.90
49579;DHT22;35483;50.828;3.228;2022-09-09T02:40:46;16.50;99.90
49579;DHT22;35483;50.828;3.228;2022-09-09T02:43:14;16.60;99.90
49579;DHT22;35483;50.828;3.228;2022-09-09T02:45:47;16.50;99.90
49579;DHT22;35483;50.828;3.228;2022-09-09T02:48:30;16.50;99.90
49579;DHT22;35483;50.828;3.228;2022-09-09T02:51:24;16.50;99.90
49579;DHT22;35483;50.828;3.228;2022-09-09T02:56:47;16.50;99.90
49579;DHT22;35483;50.828;3.228;2022-09-09T02:59:16;16.60;99.90
49579;DHT22;35483;50.828;3.228;2022-09-09T03:01:42;16.60;99.90
49579;DHT22;35483;50.828;3.228;2022-09-09T03:04:09;16.60;99.90
49579;DHT22;35483;50.828;3.228;2022-09-09T03:06:35;16.70;99.90
49579;DHT22;35483;50.828;3.228;2022-09-09T03:09:01;16.80;99.90
49579;DHT22;35483;50.828;3.228;2022-09-09T03:11:28;16.80;99.90
49579;DHT22;35483;50.828;3.228;2022-09-09T03:13:55;16.90;99.90
49579;DHT22;35483;50.828;3.228;2022-09-09T03:16:22;16.90;99.90
49579;DHT22;35483;50.828;3.228;2022-09-09T03:18:48;16.90;99.90
49579;DHT22;35483;50.828;3.228;2022-09-09T03:21:14;16.90;99.90
49579;DHT22;35483;50.828;3.228;2022-09-09T03:23:41;17.00;99.90
49579;DHT22;35483;50.828;3.228;2022-09-09T03:26:07;17.00;99.90
49579;DHT22;35483;50.828;3.228;2022-09-09T03:28:33;17.00;99.90
49579;DHT22;35483;50.828;3.228;2022-09-09T03:31:00;17.00;99.90
49579;DHT22;35483;50.828;3.228;2022-09-09T03:33:26;17.00;99.90
49579;DHT22;35483;50.828;3.228;2022-09-09T03:35:53;17.00;99.90
49579;DHT22;35483;50.828;3.228;2022-09-09T03:38:23;17.00;99.90
49579;DHT22;35483;50.828;3.228;2022-09-09T03:40:51;17.00;99.90
49579;DHT22;35483;50.828;3.228;2022-09-09T03:43:19;17.10;99.90
49579;DHT22;35483;50.828;3.228;2022-09-09T03:45:46;17.10;99.90
49579;DHT22;35483;50.828;3.228;2022-09-09T03:48:16;17.10;99.90
49579;DHT22;35483;50.828;3.228;2022-09-09T03:50:46;17.10;99.90
49579;DHT22;35483;50.828;3.228;2022-09-09T03:53:14;17.20;99.90
49579;DHT22;35483;50.828;3.228;2022-09-09T03:55:44;17.10;99.90
49579;DHT22;35483;50.828;3.228;2022-09-09T03:58:11;17.20;99.90
49579;DHT22;35483;50.828;3.228;2022-09-09T04:00:37;17.10;99.90
49579;DHT22;35483;50.828;3.228;2022-09-09T04:03:08;17.10;99.90
49579;DHT22;35483;50.828;3.228;2022-09-09T04:05:34;17.10;99.90
49579;DHT22;35483;50.828;3.228;2022-09-09T04:07:59;17.10;99.90
49579;DHT22;35483;50.828;3.228;2022-09-09T04:10:25;17.10;99.90
49579;DHT22;35483;50.828;3.228;2022-09-09T04:12:51;17.10;99.90
49579;DHT22;35483;50.828;3.228;2022-09-09T04:15:18;17.10;99.90
49579;DHT22;35483;50.828;3.228;2022-09-09T04:17:44;17.10;99.90
49579;DHT22;35483;50.828;3.228;2022-09-09T04:20:10;17.10;99.90
49579;DHT22;35483;50.828;3.228;2022-09-09T04:22:37;17.10;99.90
49579;DHT22;35483;50.828;3.228;2022-09-09T04:25:05;17.20;99.80
49579;DHT22;35483;50.828;3.228;2022-09-09T04:27:32;17.20;99.90
49579;DHT22;35483;50.828;3.228;2022-09-09T04:29:57;17.10;99.90
49579;DHT22;35483;50.828;3.228;2022-09-09T04:32:24;17.10;99.90
49579;DHT22;35483;50.828;3.228;2022-09-09T04:34:52;17.10;99.90
49579;DHT22;35483;50.828;3.228;2022-09-09T04:37:18;17.20;99.90
49579;DHT22;35483;50.828;3.228;2022-09-09T04:39:43;17.10;99.90
49579;DHT22;35483;50.828;3.228;2022-09-09T04:42:10;17.20;99.90
49579;DHT22;35483;50.828;3.228;2022-09-09T04:44:37;17.20;99.90
49579;DHT22;35483;50.828;3.228;2022-09-09T04:47:03;17.20;99.90
49579;DHT22;35483;50.828;3.228;2022-09-09T04:49:28;17.20;99.80
49579;DHT22;35483;50.828;3.228;2022-09-09T04:51:56;17.30;99.90
49579;DHT22;35483;50.828;3.228;2022-09-09T04:54:21;17.20;99.90
49579;DHT22;35483;50.828;3.228;2022-09-09T04:56:47;17.30;99.90
49579;DHT22;35483;50.828;3.228;2022-09-09T04:59:16;17.20;99.90
49579;DHT22;35483;50.828;3.228;2022-09-09T05:01:41;17.20;99.90
49579;DHT22;35483;50.828;3.228;2022-09-09T05:04:07;17.30;99.90
49579;DHT22;35483;50.828;3.228;2022-09-09T05:06:34;17.30;99.90
49579;DHT22;35483;50.828;3.228;2022-09-09T05:09:02;17.20;99.90
49579;DHT22;35483;50.828;3.228;2022-09-09T05:11:29;17.20;99.90
49579;DHT22;35483;50.828;3.228;2022-09-09T05:13:55;17.30;99.90
49579;DHT22;35483;50.828;3.228;2022-09-09T05:16:30;17.20;99.90
49579;DHT22;35483;50.828;3.228;2022-09-09T05:18:56;17.20;99.90
49579;DHT22;35483;50.828;3.228;2022-09-09T05:21:24;17.30;99.90
49579;DHT22;35483;50.828;3.228;2022-09-09T05:23:51;17.20;99.90
49579;DHT22;35483;50.828;3.228;2022-09-09T05:26:19;17.20;99.90
49579;DHT22;35483;50.828;3.228;2022-09-09T05:28:46;17.10;99.90
49579;DHT22;35483;50.828;3.228;2022-09-09T05:31:14;17.10;99.90
49579;DHT22;35483;50.828;3.228;2022-09-09T05:33:41;17.10;99.90
49579;DHT22;35483;50.828;3.228;2022-09-09T05:36:10;17.10;99.90
49579;DHT22;35483;50.828;3.228;2022-09-09T05:38:39;17.10;99.90
49579;DHT22;35483;50.828;3.228;2022-09-09T05:41:05;17.20;99.90
49579;DHT22;35483;50.828;3.228;2022-09-09T05:43:32;17.20;99.90
49579;DHT22;35483;50.828;3.228;2022-09-09T05:46:06;17.20;99.90
49579;DHT22;35483;50.828;3.228;2022-09-09T05:48:35;17.20;99.90
49579;DHT22;35483;50.828;3.228;2022-09-09T05:51:02;17.20;99.90
49579;DHT22;35483;50.828;3.228;2022-09-09T05:53:28;17.20;99.90
49579;DHT22;35483;50.828;3.228;2022-09-09T05:56:02;17.30;99.90
49579;DHT22;35483;50.828;3.228;2022-09-09T05:58:32;17.30;99.90
49579;DHT22;35483;50.828;3.228;2022-09-09T06:01:07;17.30;99.90
49579;DHT22;35483;50.828;3.228;2022-09-09T06:03:39;17.30;99.90
49579;DHT22;35483;50.828;3.228;2022-09-09T06:06:06;17.30;99.90
49579;DHT22;35483;50.828;3.228;2022-09-09T06:08:36;17.20;99.90
49579;DHT22;35483;50.828;3.228;2022-09-09T06:13:30;17.20;99.90
49579;DHT22;35483;50.828;3.228;2022-09-09T06:15:56;17.20;99.90
49579;DHT22;35483;50.828;3.228;2022-09-09T06:18:22;17.20;99.90
49579;DHT22;35483;50.828;3.228;2022-09-09T06:20:54;17.20;99.90
49579;DHT22;35483;50.828;3.228;2022-09-09T06:23:20;17.30;99.90
49579;DHT22;35483;50.828;3.228;2022-09-09T06:25:46;17.20;99.90
49579;DHT22;35483;50.828;3.228;2022-09-09T06:28:12;17.40;99.90
49579;DHT22;35483;50.828;3.228;2022-09-09T06:30:38;17.40;99.90
49579;DHT22;35483;50.828;3.228;2022-09-09T06:33:05;17.30;99.90
49579;DHT22;35483;50.828;3.228;2022-09-09T06:35:30;17.40;99.90
49579;DHT22;35483;50.828;3.228;2022-09-09T06:37:56;17.30;99.90
49579;DHT22;35483;50.828;3.228;2022-09-09T06:40:24;17.30;99.90
49579;DHT22;35483;50.828;3.228;2022-09-09T06:42:49;17.40;99.90
49579;DHT22;35483;50.828;3.228;2022-09-09T06:45:15;17.30;99.90
49579;DHT22;35483;50.828;3.228;2022-09-09T06:47:40;17.20;99.90
49579;DHT22;35483;50.828;3.228;2022-09-09T06:50:07;17.20;99.90
49579;DHT22;35483;50.828;3.228;2022-09-09T06:52:33;17.20;99.90
49579;DHT22;35483;50.828;3.228;2022-09-09T06:54:58;17.10;99.90
49579;DHT22;35483;50.828;3.228;2022-09-09T06:57:24;17.20;99.90
49579;DHT22;35483;50.828;3.228;2022-09-09T06:59:50;17.20;99.90
49579;DHT22;35483;50.828;3.228;2022-09-09T07:02:15;17.20;99.90
49579;DHT22;35483;50.828;3.228;2022-09-09T07:04:41;17.00;99.90
49579;DHT22;35483;50.828;3.228;2022-09-09T07:07:06;16.90;99.90
49579;DHT22;35483;50.828;3.228;2022-09-09T07:09:35;16.90;99.90
49579;DHT22;35483;50.828;3.228;2022-09-09T07:12:00;16.80;99.90
49579;DHT22;35483;50.828;3.228;2022-09-09T07:14:26;16.70;99.90
49579;DHT22;35483;50.828;3.228;2022-09-09T07:16:52;16.50;99.90
49579;DHT22;35483;50.828;3.228;2022-09-09T07:19:17;16.60;99.90
49579;DHT22;35483;50.828;3.228;2022-09-09T07:21:43;16.50;99.90
49579;DHT22;35483;50.828;3.228;2022-09-09T07:24:09;16.50;99.90
49579;DHT22;35483;50.828;3.228;2022-09-09T07:26:36;16.50;99.90
49579;DHT22;35483;50.828;3.228;2022-09-09T07:29:02;16.60;99.90
49579;DHT22;35483;50.828;3.228;2022-09-09T07:31:28;16.70;99.90
49579;DHT22;35483;50.828;3.228;2022-09-09T07:33:55;16.80;99.90
49579;DHT22;35483;50.828;3.228;2022-09-09T07:36:25;16.90;99.90
49579;DHT22;35483;50.828;3.228;2022-09-09T07:38:55;17.00;99.90
49579;DHT22;35483;50.828;3.228;2022-09-09T07:41:26;17.10;99.90
49579;DHT22;35483;50.828;3.228;2022-09-09T07:43:52;17.20;99.90
49579;DHT22;35483;50.828;3.228;2022-09-09T07:46:22;17.20;99.90
49579;DHT22;35483;50.828;3.228;2022-09-09T07:48:49;17.30;99.90
49579;DHT22;35483;50.828;3.228;2022-09-09T07:51:17;17.40;99.90
49579;DHT22;35483;50.828;3.228;2022-09-09T07:53:45;17.40;99.90
49579;DHT22;35483;50.828;3.228;2022-09-09T07:56:12;17.40;99.90
49579;DHT22;35483;50.828;3.228;2022-09-09T07:58:38;17.50;99.90
49579;DHT22;35483;50.828;3.228;2022-09-09T08:01:08;17.50;99.90
49579;DHT22;35483;50.828;3.228;2022-09-09T08:03:35;17.60;99.90
49579;DHT22;35483;50.828;3.228;2022-09-09T08:06:01;17.60;99.90
49579;DHT22;35483;50.828;3.228;2022-09-09T08:08:27;17.60;99.90
49579;DHT22;35483;50.828;3.228;2022-09-09T08:10:53;17.70;99.90
49579;DHT22;35483;50.828;3.228;2022-09-09T08:13:19;17.60;99.90
49579;DHT22;35483;50.828;3.228;2022-09-09T08:15:44;17.60;99.90
49579;DHT22;35483;50.828;3.228;2022-09-09T08:18:11;17.70;99.90
49579;DHT22;35483;50.828;3.228;2022-09-09T08:20:36;17.80;99.90
49579;DHT22;35483;50.828;3.228;2022-09-09T08:23:02;17.70;99.90
49579;DHT22;35483;50.828;3.228;2022-09-09T08:25:28;17.70;99.90
49579;DHT22;35483;50.828;3.228;2022-09-09T08:27:54;17.80;99.90
49579;DHT22;35483;50.828;3.228;2022-09-09T08:30:19;17.80;99.90
49579;DHT22;35483;50.828;3.228;2022-09-09T08:32:45;17.80;99.90
49579;DHT22;35483;50.828;3.228;2022-09-09T08:35:10;17.90;99.90
49579;DHT22;35483;50.828;3.228;2022-09-09T08:37:36;18.00;99.90
49579;DHT22;35483;50.828;3.228;2022-09-09T08:40:02;18.10;99.90
49579;DHT22;35483;50.828;3.228;2022-09-09T08:42:30;18.20;99.90
49579;DHT22;35483;50.828;3.228;2022-09-09T08:45:03;18.30;99.90
49579;DHT22;35483;50.828;3.228;2022-09-09T08:47:44;18.40;99.90
49579;DHT22;35483;50.828;3.228;2022-09-09T08:50:32;18.50;99.90
49579;DHT22;35483;50.828;3.228;2022-09-09T08:55:54;18.50;99.90
49579;DHT22;35483;50.828;3.228;2022-09-09T08:58:27;18.50;99.90
49579;DHT22;35483;50.828;3.228;2022-09-09T09:01:00;18.60;99.90
49579;DHT22;35483;50.828;3.228;2022-09-09T09:03:35;18.70;99.90
49579;DHT22;35483;50.828;3.228;2022-09-09T09:11:19;19.20;99.60
49579;DHT22;35483;50.828;3.228;2022-09-09T09:13:50;19.20;99.70
49579;DHT22;35483;50.828;3.228;2022-09-09T09:16:25;19.20;99.80
49579;DHT22;35483;50.828;3.228;2022-09-09T09:18:52;19.20;99.50
49579;DHT22;35483;50.828;3.228;2022-09-09T09:21:34;19.20;99.50
49579;DHT22;35483;50.828;3.228;2022-09-09T09:24:02;19.10;99.50
49579;DHT22;35483;50.828;3.228;2022-09-09T09:26:34;19.00;99.50
49579;DHT22;35483;50.828;3.228;2022-09-09T09:29:00;19.00;99.60
49579;DHT22;35483;50.828;3.228;2022-09-09T09:31:28;19.10;99.80
49579;DHT22;35483;50.828;3.228;2022-09-09T09:33:54;19.10;99.50
49579;DHT22;35483;50.828;3.228;2022-09-09T09:36:21;19.10;99.40
49579;DHT22;35483;50.828;3.228;2022-09-09T09:38:53;19.20;99.70
49579;DHT22;35483;50.828;3.228;2022-09-09T09:43:58;19.20;99.30
49579;DHT22;35483;50.828;3.228;2022-09-09T09:46:25;19.20;99.30
49579;DHT22;35483;50.828;3.228;2022-09-09T09:49:01;19.20;99.20
49579;DHT22;35483;50.828;3.228;2022-09-09T09:51:28;19.20;99.20
49579;DHT22;35483;50.828;3.228;2022-09-09T09:53:54;19.20;99.20
49579;DHT22;35483;50.828;3.228;2022-09-09T09:56:29;19.20;99.20
49579;DHT22;35483;50.828;3.228;2022-09-09T09:58:54;19.30;99.10
49579;DHT22;35483;50.828;3.228;2022-09-09T10:04:12;19.40;99.00
49579;DHT22;35483;50.828;3.228;2022-09-09T10:06:39;19.40;98.90
49579;DHT22;35483;50.828;3.228;2022-09-09T10:09:50;19.40;98.90
49579;DHT22;35483;50.828;3.228;2022-09-09T10:14:35;19.40;98.80
49579;DHT22;35483;50.828;3.228;2022-09-09T10:17:07;19.40;98.90
49579;DHT22;35483;50.828;3.228;2022-09-09T10:19:35;19.40;99.20
49579;DHT22;35483;50.828;3.228;2022-09-09T10:27:24;19.40;99.10
49579;DHT22;35483;50.828;3.228;2022-09-09T10:34:56;19.50;99.20
49579;DHT22;35483;50.828;3.228;2022-09-09T10:37:32;19.50;99.10
49579;DHT22;35483;50.828;3.228;2022-09-09T10:42:42;19.40;99.10
49579;DHT22;35483;50.828;3.228;2022-09-09T10:50:15;19.90;98.60
49579;DHT22;35483;50.828;3.228;2022-09-09T10:52:51;20.00;98.40
49579;DHT22;35483;50.828;3.228;2022-09-09T10:55:22;20.00;99.00
49579;DHT22;35483;50.828;3.228;2022-09-09T10:57:52;20.00;97.70
49579;DHT22;35483;50.828;3.228;2022-09-09T11:00:20;20.10;98.40
49579;DHT22;35483;50.828;3.228;2022-09-09T11:03:00;20.10;98.60
49579;DHT22;35483;50.828;3.228;2022-09-09T11:05:28;20.10;98.60
49579;DHT22;35483;50.828;3.228;2022-09-09T11:07:59;20.10;98.50
49579;DHT22;35483;50.828;3.228;2022-09-09T11:15:56;19.90;98.60
49579;DHT22;35483;50.828;3.228;2022-09-09T11:18:23;19.80;99.00
49579;DHT22;35483;50.828;3.228;2022-09-09T11:20:51;19.70;97.80
49579;DHT22;35483;50.828;3.228;2022-09-09T11:23:20;19.70;99.00
49579;DHT22;35483;50.828;3.228;2022-09-09T11:25:49;19.70;98.80
49579;DHT22;35483;50.828;3.228;2022-09-09T11:36:06;19.70;99.10
49579;DHT22;35483;50.828;3.228;2022-09-09T11:41:07;19.60;98.80
49579;DHT22;35483;50.828;3.228;2022-09-09T11:43:39;19.70;99.20
49579;DHT22;35483;50.828;3.228;2022-09-09T11:46:06;19.80;99.10
49579;DHT22;35483;50.828;3.228;2022-09-09T11:48:36;19.90;99.00
49579;DHT22;35483;50.828;3.228;2022-09-09T11:51:04;20.00;98.70
49579;DHT22;35483;50.828;3.228;2022-09-09T11:53:30;20.00;98.70
49579;DHT22;35483;50.828;3.228;2022-09-09T11:56:05;20.10;98.90
49579;DHT22;35483;50.828;3.228;2022-09-09T11:58:33;20.30;98.80
49579;DHT22;35483;50.828;3.228;2022-09-09T12:01:01;20.20;97.60
49579;DHT22;35483;50.828;3.228;2022-09-09T12:08:36;20.60;98.50
49579;DHT22;35483;50.828;3.228;2022-09-09T12:11:02;20.60;98.00
49579;DHT22;35483;50.828;3.228;2022-09-09T12:13:30;20.80;98.20
49579;DHT22;35483;50.828;3.228;2022-09-09T12:15:57;20.90;98.10
49579;DHT22;35483;50.828;3.228;2022-09-09T12:20:54;21.20;97.70
49579;DHT22;35483;50.828;3.228;2022-09-09T12:23:25;21.40;97.50
49579;DHT22;35483;50.828;3.228;2022-09-09T12:28:21;21.40;97.60
49579;DHT22;35483;50.828;3.228;2022-09-09T12:30:58;21.50;97.60
49579;DHT22;35483;50.828;3.228;2022-09-09T12:33:33;21.60;97.50
49579;DHT22;35483;50.828;3.228;2022-09-09T12:35:58;21.60;97.20
49579;DHT22;35483;50.828;3.228;2022-09-09T12:38:34;21.60;95.70
49579;DHT22;35483;50.828;3.228;2022-09-09T12:40:59;21.60;96.40
49579;DHT22;35483;50.828;3.228;2022-09-09T12:43:26;21.60;97.30
49579;DHT22;35483;50.828;3.228;2022-09-09T12:45:53;21.50;97.10
49579;DHT22;35483;50.828;3.228;2022-09-09T12:48:28;21.50;97.30
49579;DHT22;35483;50.828;3.228;2022-09-09T12:50:55;21.60;96.40
49579;DHT22;35483;50.828;3.228;2022-09-09T12:53:22;21.70;97.40
49579;DHT22;35483;50.828;3.228;2022-09-09T12:55:50;21.80;97.20
49579;DHT22;35483;50.828;3.228;2022-09-09T12:58:17;21.90;95.60
49579;DHT22;35483;50.828;3.228;2022-09-09T13:00:53;21.90;96.70
49579;DHT22;35483;50.828;3.228;2022-09-09T13:03:21;22.10;96.90
49579;DHT22;35483;50.828;3.228;2022-09-09T13:05:47;22.10;96.90
49579;DHT22;35483;50.828;3.228;2022-09-09T13:08:13;22.30;96.70
49579;DHT22;35483;50.828;3.228;2022-09-09T13:13:12;22.50;96.60
49579;DHT22;35483;50.828;3.228;2022-09-09T13:15:39;22.50;95.20
49579;DHT22;35483;50.828;3.228;2022-09-09T13:18:06;22.50;95.90
49579;DHT22;35483;50.828;3.228;2022-09-09T13:20:32;22.50;96.40
49579;DHT22;35483;50.828;3.228;2022-09-09T13:22:57;22.50;96.40
49579;DHT22;35483;50.828;3.228;2022-09-09T13:25:27;22.40;96.30
49579;DHT22;35483;50.828;3.228;2022-09-09T13:28:00;22.40;96.20
49579;DHT22;35483;50.828;3.228;2022-09-09T13:30:35;22.40;96.20
49579;DHT22;35483;50.828;3.228;2022-09-09T13:33:06;22.30;95.80
49579;DHT22;35483;50.828;3.228;2022-09-09T13:35:32;22.30;95.50
49579;DHT22;35483;50.828;3.228;2022-09-09T13:37:58;22.10;95.30
49579;DHT22;35483;50.828;3.228;2022-09-09T13:40:24;22.00;96.60
49579;DHT22;35483;50.828;3.228;2022-09-09T13:42:56;22.00;95.50
49579;DHT22;35483;50.828;3.228;2022-09-09T13:45:23;22.00;96.40
49579;DHT22;35483;50.828;3.228;2022-09-09T13:47:52;22.10;96.00
49579;DHT22;35483;50.828;3.228;2022-09-09T13:52:49;22.30;96.10
49579;DHT22;35483;50.828;3.228;2022-09-09T13:55:17;22.50;95.40
49579;DHT22;35483;50.828;3.228;2022-09-09T13:57:52;22.60;95.30
49579;DHT22;35483;50.828;3.228;2022-09-09T14:00:18;22.70;95.80
49579;DHT22;35483;50.828;3.228;2022-09-09T14:02:44;22.90;95.60
49579;DHT22;35483;50.828;3.228;2022-09-09T14:05:10;23.00;95.10
49579;DHT22;35483;50.828;3.228;2022-09-09T14:07:37;23.00;95.10
49579;DHT22;35483;50.828;3.228;2022-09-09T14:10:04;23.00;94.70
49579;DHT22;35483;50.828;3.228;2022-09-09T14:12:29;23.00;94.60
49579;DHT22;35483;50.828;3.228;2022-09-09T14:14:55;23.00;94.20
49579;DHT22;35483;50.828;3.228;2022-09-09T14:17:20;22.90;94.70
49579;DHT22;35483;50.828;3.228;2022-09-09T14:19:47;22.70;94.30
49579;DHT22;35483;50.828;3.228;2022-09-09T14:22:13;22.60;94.60
49579;DHT22;35483;50.828;3.228;2022-09-09T14:24:38;22.50;94.80
49579;DHT22;35483;50.828;3.228;2022-09-09T14:27:04;22.30;94.80
49579;DHT22;35483;50.828;3.228;2022-09-09T14:29:29;22.20;94.00
49579;DHT22;35483;50.828;3.228;2022-09-09T14:31:55;22.20;94.80
49579;DHT22;35483;50.828;3.228;2022-09-09T14:34:20;22.20;93.60
49579;DHT22;35483;50.828;3.228;2022-09-09T14:36:46;22.10;94.60
49579;DHT22;35483;50.828;3.228;2022-09-09T14:39:12;22.10;94.70
49579;DHT22;35483;50.828;3.228;2022-09-09T14:41:38;22.10;94.50
49579;DHT22;35483;50.828;3.228;2022-09-09T14:44:03;22.00;94.60
49579;DHT22;35483;50.828;3.228;2022-09-09T14:46:29;22.00;94.60
49579;DHT22;35483;50.828;3.228;2022-09-09T14:48:54;22.10;94.70
49579;DHT22;35483;50.828;3.228;2022-09-09T14:51:21;22.10;94.70
49579;DHT22;35483;50.828;3.228;2022-09-09T14:53:47;22.00;93.80
49579;DHT22;35483;50.828;3.228;2022-09-09T14:56:19;21.80;94.70
49579;DHT22;35483;50.828;3.228;2022-09-09T14:58:47;21.70;94.30
49579;DHT22;35483;50.828;3.228;2022-09-09T15:01:14;21.50;95.40
49579;DHT22;35483;50.828;3.228;2022-09-09T15:03:42;21.50;95.60
49579;DHT22;35483;50.828;3.228;2022-09-09T15:06:09;21.30;95.70
49579;DHT22;35483;50.828;3.228;2022-09-09T15:08:35;21.10;95.90
49579;DHT22;35483;50.828;3.228;2022-09-09T15:11:02;20.90;96.10
49579;DHT22;35483;50.828;3.228;2022-09-09T15:13:28;20.60;96.10
49579;DHT22;35483;50.828;3.228;2022-09-09T15:15:53;20.50;96.30
49579;DHT22;35483;50.828;3.228;2022-09-09T15:18:19;20.50;97.40
49579;DHT22;35483;50.828;3.228;2022-09-09T15:20:45;20.50;97.60
49579;DHT22;35483;50.828;3.228;2022-09-09T15:23:11;20.70;97.10
49579;DHT22;35483;50.828;3.228;2022-09-09T15:25:37;20.90;97.00
49579;DHT22;35483;50.828;3.228;2022-09-09T15:28:02;21.00;96.50
49579;DHT22;35483;50.828;3.228;2022-09-09T15:30:29;21.20;97.80
49579;DHT22;35483;50.828;3.228;2022-09-09T15:32:55;21.40;96.50
49579;DHT22;35483;50.828;3.228;2022-09-09T15:35:20;21.50;96.50
49579;DHT22;35483;50.828;3.228;2022-09-09T15:37:46;21.60;96.80
49579;DHT22;35483;50.828;3.228;2022-09-09T15:40:11;21.50;96.50
49579;DHT22;35483;50.828;3.228;2022-09-09T15:42:38;21.50;96.60
49579;DHT22;35483;50.828;3.228;2022-09-09T15:45:03;21.40;96.80
49579;DHT22;35483;50.828;3.228;2022-09-09T15:47:31;21.40;97.20
49579;DHT22;35483;50.828;3.228;2022-09-09T15:49:57;21.30;96.90
49579;DHT22;35483;50.828;3.228;2022-09-09T15:52:23;21.30;97.60
49579;DHT22;35483;50.828;3.228;2022-09-09T15:54:48;21.20;97.40
49579;DHT22;35483;50.828;3.228;2022-09-09T15:57:14;21.10;97.40
49579;DHT22;35483;50.828;3.228;2022-09-09T15:59:39;21.20;97.10
49579;DHT22;35483;50.828;3.228;2022-09-09T16:02:05;21.30;96.90
49579;DHT22;35483;50.828;3.228;2022-09-09T16:04:31;21.30;96.70
49579;DHT22;35483;50.828;3.228;2022-09-09T16:07:02;21.30;96.30
49579;DHT22;35483;50.828;3.228;2022-09-09T16:09:28;21.20;96.10
49579;DHT22;35483;50.828;3.228;2022-09-09T16:11:58;21.10;96.20
49579;DHT22;35483;50.828;3.228;2022-09-09T16:14:24;21.10;96.00
49579;DHT22;35483;50.828;3.228;2022-09-09T16:16:50;21.00;95.80
49579;DHT22;35483;50.828;3.228;2022-09-09T16:19:16;20.90;95.90
49579;DHT22;35483;50.828;3.228;2022-09-09T16:21:42;20.80;96.30
49579;DHT22;35483;50.828;3.228;2022-09-09T16:24:10;20.80;96.30
49579;DHT22;35483;50.828;3.228;2022-09-09T16:26:37;20.80;96.30
49579;DHT22;35483;50.828;3.228;2022-09-09T16:29:04;20.80;96.30
49579;DHT22;35483;50.828;3.228;2022-09-09T16:31:30;20.80;96.30
49579;DHT22;35483;50.828;3.228;2022-09-09T16:33:57;20.80;96.40
49579;DHT22;35483;50.828;3.228;2022-09-09T16:36:27;20.70;96.30
49579;DHT22;35483;50.828;3.228;2022-09-09T16:38:54;20.60;96.40
49579;DHT22;35483;50.828;3.228;2022-09-09T16:41:26;20.60;95.50
49579;DHT22;35483;50.828;3.228;2022-09-09T16:43:54;20.60;96.30
49579;DHT22;35483;50.828;3.228;2022-09-09T16:46:21;20.60;96.30
49579;DHT22;35483;50.828;3.228;2022-09-09T16:48:47;20.50;96.20
49579;DHT22;35483;50.828;3.228;2022-09-09T16:51:20;20.40;96.30
49579;DHT22;35483;50.828;3.228;2022-09-09T16:53:45;20.30;96.20
49579;DHT22;35483;50.828;3.228;2022-09-09T16:56:14;20.20;95.80
49579;DHT22;35483;50.828;3.228;2022-09-09T16:58:40;20.10;96.30
49579;DHT22;35483;50.828;3.228;2022-09-09T17:01:08;20.00;96.30
49579;DHT22;35483;50.828;3.228;2022-09-09T17:03:34;19.90;96.40
49579;DHT22;35483;50.828;3.228;2022-09-09T17:05:59;19.90;96.40
49579;DHT22;35483;50.828;3.228;2022-09-09T17:08:28;19.80;96.30
49579;DHT22;35483;50.828;3.228;2022-09-09T17:10:55;19.90;96.60
49579;DHT22;35483;50.828;3.228;2022-09-09T17:13:20;20.00;96.30